createdAt,value
2023-05-09T00:02:22.175Z,97073.44
2023-05-09T00:04:49.266Z,97076.81
2023-05-09T00:07:16.254Z,97079.31
2023-05-09T00:09:43.168Z,97063.06
2023-05-09T00:12:10.192Z,97069.31
2023-05-09T00:14:37.047Z,97074.94
2023-05-09T00:17:03.942Z,97072.03
2023-05-09T00:19:30.739Z,97065.75
2023-05-09T00:21:57.582Z,97055.13
2023-05-09T00:24:24.473Z,97057.00
2023-05-09T00:26:51.307Z,97055.50
2023-05-09T00:29:18.362Z,97057.38
2023-05-09T00:31:45.166Z,97051.28
2023-05-09T00:34:12.146Z,97055.88
2023-05-09T00:36:38.954Z,97046.91
2023-05-09T00:39:05.780Z,97047.97
2023-05-09T00:41:32.603Z,97046.28
2023-05-09T00:43:59.517Z,97044.59
2023-05-09T00:46:26.634Z,97051.03
2023-05-09T00:48:53.751Z,97046.66
2023-05-09T00:51:21.497Z,97042.28
2023-05-09T00:53:48.415Z,97043.28
2023-05-09T00:56:15.664Z,97033.50
2023-05-09T00:58:42.658Z,97029.94
2023-05-09T01:01:09.641Z,97036.41
2023-05-09T01:03:39.336Z,97032.19
2023-05-09T01:06:45.314Z,97033.34
2023-05-09T01:09:45.218Z,97018.97
2023-05-09T01:12:22.448Z,97019.09
2023-05-09T01:15:02.168Z,97017.47
2023-05-09T01:17:51.204Z,97020.59
2023-05-09T01:20:34.855Z,97019.72
2023-05-09T01:23:27.278Z,97019.31
2023-05-09T01:26:06.353Z,97019.09
2023-05-09T01:29:13.256Z,97012.19
2023-05-09T01:31:42.304Z,97002.84
2023-05-09T01:34:11.459Z,97000.34
2023-05-09T01:36:42.396Z,96998.63
2023-05-09T01:39:13.550Z,96994.94
2023-05-09T01:41:40.527Z,96998.25
2023-05-09T01:44:11.837Z,97004.72
2023-05-09T01:46:39.757Z,97002.47
2023-05-09T01:49:09.094Z,96998.72
2023-05-09T01:51:37.949Z,96998.53
2023-05-09T01:54:06.465Z,97003.88
2023-05-09T01:56:36.082Z,97007.94
2023-05-09T01:59:03.808Z,96999.66
2023-05-09T02:01:31.592Z,96999.44
2023-05-09T02:03:59.715Z,96996.53
2023-05-09T02:06:29.793Z,96996.97
2023-05-09T02:08:58.111Z,96984.94
2023-05-09T02:11:26.218Z,96985.56
2023-05-09T02:13:53.077Z,96993.31
2023-05-09T02:16:21.075Z,96987.91
2023-05-09T02:18:48.570Z,96989.56
2023-05-09T02:21:15.465Z,96979.38
2023-05-09T02:23:42.328Z,96978.34
2023-05-09T02:26:09.378Z,96975.63
2023-05-09T02:28:36.834Z,96975.00
2023-05-09T02:31:07.022Z,96974.34
2023-05-09T02:33:35.922Z,96967.25
2023-05-09T02:36:03.394Z,96974.56
2023-05-09T02:38:30.250Z,96974.72
2023-05-09T02:40:57.170Z,96967.66
2023-05-09T02:43:26.828Z,96970.56
2023-05-09T02:45:55.293Z,96973.25
2023-05-09T02:48:22.243Z,96969.72
2023-05-09T02:50:49.140Z,96967.66
2023-05-09T02:53:16.207Z,96960.34
2023-05-09T02:55:43.002Z,96959.13
2023-05-09T02:58:14.119Z,96962.47
2023-05-09T03:00:43.115Z,96959.78
2023-05-09T03:03:10.760Z,96956.88
2023-05-09T03:05:37.757Z,96958.56
2023-05-09T03:08:05.129Z,96962.75
2023-05-09T03:10:34.144Z,96958.16
2023-05-09T03:13:01.295Z,96952.53
2023-05-09T03:15:28.251Z,96953.38
2023-05-09T03:17:56.424Z,96958.63
2023-05-09T03:20:23.263Z,96954.22
2023-05-09T03:22:50.155Z,96953.22
2023-05-09T03:25:17.341Z,96954.22
2023-05-09T03:27:44.977Z,96952.34
2023-05-09T03:30:14.937Z,96940.19
2023-05-09T03:32:44.184Z,96946.28
2023-05-09T03:35:11.119Z,96942.75
2023-05-09T03:37:38.210Z,96945.25
2023-05-09T03:40:07.848Z,96936.28
2023-05-09T03:42:41.149Z,96936.09
2023-05-09T03:45:08.813Z,96934.63
2023-05-09T03:47:35.666Z,96940.03
2023-05-09T03:50:04.127Z,96937.50
2023-05-09T03:52:31.597Z,96933.78
2023-05-09T03:54:58.767Z,96941.91
2023-05-09T03:57:25.936Z,96931.91
2023-05-09T03:59:55.609Z,96936.66
2023-05-09T04:02:23.694Z,96923.13
2023-05-09T04:04:51.015Z,96923.13
2023-05-09T04:07:20.723Z,96925.84
2023-05-09T04:09:47.590Z,96926.88
2023-05-09T04:12:14.412Z,96926.03
2023-05-09T04:14:41.568Z,96917.91
2023-05-09T04:17:09.035Z,96919.78
2023-05-09T04:19:35.928Z,96926.41
2023-05-09T04:22:02.931Z,96928.09
2023-05-09T04:24:30.994Z,96925.38
2023-05-09T04:26:58.447Z,96921.84
2023-05-09T04:29:26.634Z,96921.00
2023-05-09T04:31:55.654Z,96925.59
2023-05-09T04:34:26.990Z,96919.34
2023-05-09T04:36:55.672Z,96921.00
2023-05-09T04:39:22.592Z,96914.75
2023-05-09T04:41:58.975Z,96919.53
2023-05-09T04:44:26.691Z,96925.97
2023-05-09T04:46:55.135Z,96924.31
2023-05-09T04:49:21.975Z,96932.44
2023-05-09T04:51:48.773Z,96935.13
2023-05-09T04:54:15.834Z,96936.81
2023-05-09T04:56:43.474Z,96930.38
2023-05-09T04:59:10.532Z,96926.63
2023-05-09T05:01:37.393Z,96931.66
2023-05-09T05:04:04.587Z,96924.16
2023-05-09T05:06:32.916Z,96925.66
2023-05-09T05:09:00.543Z,96922.94
2023-05-09T05:11:27.930Z,96928.16
2023-05-09T05:13:55.867Z,96918.16
2023-05-09T05:16:23.084Z,96919.66
2023-05-09T05:18:49.994Z,96919.44
2023-05-09T05:21:18.380Z,96919.25
2023-05-09T05:23:45.722Z,96916.13
2023-05-09T05:26:13.770Z,96914.72
2023-05-09T05:28:40.868Z,96909.94
2023-05-09T05:31:08.042Z,96921.25
2023-05-09T05:33:34.898Z,96915.59
2023-05-09T05:36:02.888Z,96907.94
2023-05-09T05:38:29.690Z,96910.25
2023-05-09T05:40:58.434Z,96900.88
2023-05-09T05:43:26.753Z,96899.19
2023-05-09T05:45:54.352Z,96904.41
2023-05-09T05:48:23.437Z,96910.66
2023-05-09T05:50:51.499Z,96906.53
2023-05-09T05:53:22.367Z,96901.75
2023-05-09T05:55:50.804Z,96899.50
2023-05-09T05:58:17.644Z,96900.13
2023-05-09T06:00:44.699Z,96901.38
2023-05-09T06:03:16.332Z,96899.97
2023-05-09T06:05:55.819Z,96901.44
2023-05-09T06:08:22.612Z,96898.38
2023-05-09T06:10:49.483Z,96896.06
2023-05-09T06:13:16.424Z,96899.44
2023-05-09T06:15:48.237Z,96899.66
2023-05-09T06:18:16.059Z,96893.00
2023-05-09T06:20:42.862Z,96887.19
2023-05-09T06:23:09.674Z,96883.03
2023-05-09T06:25:36.498Z,96885.16
2023-05-09T06:28:03.571Z,96891.63
2023-05-09T06:30:30.516Z,96888.75
2023-05-09T06:32:58.264Z,96880.63
2023-05-09T06:35:25.321Z,96883.56
2023-05-09T06:37:52.084Z,96871.88
2023-05-09T06:40:19.240Z,96866.09
2023-05-09T06:42:46.124Z,96872.16
2023-05-09T06:45:13.330Z,96874.69
2023-05-09T06:47:40.653Z,96863.84
2023-05-09T06:50:08.518Z,96860.94
2023-05-09T06:52:35.818Z,96859.91
2023-05-09T06:55:03.634Z,96850.72
2023-05-09T06:57:30.681Z,96849.69
2023-05-09T06:59:57.532Z,96853.03
2023-05-09T07:02:24.485Z,96854.69
2023-05-09T07:04:51.318Z,96846.34
2023-05-09T07:07:18.165Z,96850.50
2023-05-09T07:09:45.036Z,96848.63
2023-05-09T07:12:11.827Z,96853.88
2023-05-09T07:14:38.687Z,96846.50
2023-05-09T07:17:21.223Z,96838.97
2023-05-09T07:19:49.419Z,96834.75
2023-05-09T07:22:16.263Z,96816.53
2023-05-09T07:24:44.410Z,96820.91
2023-05-09T07:27:11.229Z,96809.31
2023-05-09T07:29:38.169Z,96801.75
2023-05-09T07:32:05.321Z,96811.78
2023-05-09T07:34:32.230Z,96805.44
2023-05-09T07:36:59.030Z,96804.78
2023-05-09T07:39:26.003Z,96803.13
2023-05-09T07:41:52.824Z,96794.91
2023-05-09T07:44:19.596Z,96791.34
2023-05-09T07:46:46.686Z,96789.59
2023-05-09T07:49:13.495Z,96789.78
2023-05-09T07:51:41.269Z,96781.81
2023-05-09T07:54:09.857Z,96792.03
2023-05-09T07:56:37.072Z,96788.63
2023-05-09T07:59:03.960Z,96781.88
2023-05-09T08:01:30.815Z,96790.47
2023-05-09T08:03:57.728Z,96785.84
2023-05-09T08:06:24.622Z,96782.09
2023-05-09T08:08:51.396Z,96773.69
2023-05-09T08:11:18.293Z,96773.00
2023-05-09T08:13:45.270Z,96766.06
2023-05-09T08:16:12.093Z,96763.50
2023-05-09T08:18:38.897Z,96762.22
2023-05-09T08:21:05.742Z,96755.03
2023-05-09T08:23:32.913Z,96753.75
2023-05-09T08:25:59.749Z,96752.50
2023-05-09T08:28:28.475Z,96751.03
2023-05-09T08:30:56.704Z,96745.91
2023-05-09T08:33:24.033Z,96749.41
2023-05-09T08:35:52.357Z,96749.81
2023-05-09T08:38:19.958Z,96754.00
2023-05-09T08:40:47.138Z,96751.41
2023-05-09T08:43:16.394Z,96746.34
2023-05-09T08:45:51.340Z,96744.22
2023-05-09T08:48:19.215Z,96738.91
2023-05-09T08:50:46.185Z,96738.69
2023-05-09T08:53:13.715Z,96733.00
2023-05-09T08:55:40.774Z,96727.34
2023-05-09T08:58:11.571Z,96729.81
2023-05-09T09:00:39.338Z,96721.78
2023-05-09T09:03:07.436Z,96717.31
2023-05-09T09:05:41.932Z,96709.72
2023-05-09T09:08:14.203Z,96719.75
2023-05-09T09:10:47.068Z,96708.34
2023-05-09T09:13:15.454Z,96709.81
2023-05-09T09:15:46.244Z,96703.03
2023-05-09T09:18:22.369Z,96696.53
2023-05-09T09:20:55.921Z,96694.56
2023-05-09T09:23:26.225Z,96689.47
2023-05-09T09:26:01.400Z,96686.28
2023-05-09T09:28:28.654Z,96681.94
2023-05-09T09:30:55.655Z,96691.94
2023-05-09T09:33:24.332Z,96682.44
2023-05-09T09:35:53.534Z,96675.22
2023-05-09T09:38:22.124Z,96676.78
2023-05-09T09:40:53.847Z,96660.06
2023-05-09T09:43:20.999Z,96661.75
2023-05-09T09:45:51.459Z,96655.09
2023-05-09T09:48:18.419Z,96653.13
2023-05-09T09:50:48.229Z,96649.91
2023-05-09T09:53:14.966Z,96648.13
2023-05-09T09:55:51.111Z,96641.00
2023-05-09T09:58:22.005Z,96640.63
2023-05-09T10:01:08.772Z,96633.50
2023-05-09T10:03:38.072Z,96630.16
2023-05-09T10:06:05.428Z,96621.50
2023-05-09T10:08:32.271Z,96629.59
2023-05-09T10:11:00.115Z,96630.16
2023-05-09T10:13:28.239Z,96622.94
2023-05-09T10:15:58.091Z,96618.13
2023-05-09T10:18:29.053Z,96611.72
2023-05-09T10:21:01.897Z,96608.16
2023-05-09T10:23:31.228Z,96599.53
2023-05-09T10:26:28.738Z,96597.50
2023-05-09T10:28:57.790Z,96594.75
2023-05-09T10:31:29.853Z,96590.19
2023-05-09T10:33:57.046Z,96589.31
2023-05-09T10:36:24.872Z,96586.66
2023-05-09T10:38:54.541Z,96582.13
2023-05-09T10:41:22.401Z,96578.16
2023-05-09T10:43:49.348Z,96575.88
2023-05-09T10:46:17.407Z,96567.25
2023-05-09T10:48:44.685Z,96565.50
2023-05-09T10:51:13.043Z,96564.34
2023-05-09T10:53:55.763Z,96556.78
2023-05-09T10:56:34.320Z,96552.88
2023-05-09T10:59:01.350Z,96547.88
2023-05-09T11:01:39.089Z,96538.88
2023-05-09T11:04:12.634Z,96527.00
2023-05-09T11:06:52.557Z,96520.50
2023-05-09T11:09:38.660Z,96517.88
2023-05-09T11:12:05.508Z,96519.41
2023-05-09T11:14:45.555Z,96512.28
2023-05-09T11:17:22.559Z,96507.59
2023-05-09T11:19:49.718Z,96506.59
2023-05-09T11:22:33.523Z,96504.88
2023-05-09T11:25:17.010Z,96510.31
2023-05-09T11:27:52.006Z,96503.66
2023-05-09T11:30:20.622Z,96504.75
2023-05-09T11:32:53.597Z,96496.16
2023-05-09T11:35:23.362Z,96493.66
2023-05-09T11:38:05.472Z,96482.63
2023-05-09T11:40:34.750Z,96482.63
2023-05-09T11:43:02.132Z,96478.72
2023-05-09T11:45:33.289Z,96472.38
2023-05-09T11:48:01.161Z,96469.63
2023-05-09T11:50:29.271Z,96465.47
2023-05-09T11:52:56.308Z,96459.16
2023-05-09T11:55:24.077Z,96458.56
2023-05-09T11:57:53.603Z,96454.44
2023-05-09T12:00:23.484Z,96455.50
2023-05-09T12:02:54.127Z,96442.06
2023-05-09T12:05:22.752Z,96445.06
2023-05-09T12:07:50.157Z,96437.06
2023-05-09T12:10:25.460Z,96434.53
2023-05-09T12:12:57.089Z,96427.69
2023-05-09T12:15:24.412Z,96424.13
2023-05-09T12:18:10.909Z,96416.94
2023-05-09T12:20:48.079Z,96411.69
2023-05-09T12:23:15.609Z,96412.56
2023-05-09T12:25:56.216Z,96403.69
2023-05-09T12:28:24.409Z,96401.59
2023-05-09T12:30:52.692Z,96398.59
2023-05-09T12:33:20.292Z,96400.56
2023-05-09T12:35:49.241Z,96399.22
2023-05-09T12:38:22.507Z,96393.97
2023-05-09T12:41:03.492Z,96385.84
2023-05-09T12:43:36.257Z,96389.22
2023-05-09T12:46:03.934Z,96381.38
2023-05-09T12:48:38.428Z,96380.88
2023-05-09T12:51:06.512Z,96386.47
2023-05-09T12:53:39.797Z,96374.72
2023-05-09T12:56:23.248Z,96367.34
2023-05-09T12:58:52.950Z,96363.59
2023-05-09T13:01:22.214Z,96364.22
2023-05-09T13:04:04.747Z,96357.91
2023-05-09T13:06:32.211Z,96358.56
2023-05-09T13:09:02.187Z,96350.41
2023-05-09T13:11:29.375Z,96344.19
2023-05-09T13:13:56.202Z,96339.84
2023-05-09T13:16:23.556Z,96342.03
2023-05-09T13:18:50.383Z,96338.75
2023-05-09T13:21:17.313Z,96334.72
2023-05-09T13:23:45.694Z,96335.59
2023-05-09T13:26:12.615Z,96321.13
2023-05-09T13:28:40.628Z,96325.84
2023-05-09T13:31:07.998Z,96327.84
2023-05-09T13:33:35.023Z,96318.56
2023-05-09T13:36:04.300Z,96317.53
2023-05-09T13:38:32.290Z,96315.38
2023-05-09T13:41:00.135Z,96308.56
2023-05-09T13:43:27.313Z,96311.09
2023-05-09T13:45:54.270Z,96293.50
2023-05-09T13:48:21.146Z,96292.41
2023-05-09T13:50:47.977Z,96293.50
2023-05-09T13:53:14.803Z,96289.41
2023-05-09T13:55:41.601Z,96293.78
2023-05-09T13:58:08.400Z,96286.31
2023-05-09T14:00:35.480Z,96278.63
2023-05-09T14:03:03.307Z,96281.06
2023-05-09T14:05:33.841Z,96273.06
2023-05-09T14:08:01.869Z,96274.69
2023-05-09T14:10:28.927Z,96274.66
2023-05-09T14:12:56.386Z,96267.50
2023-05-09T14:15:23.506Z,96266.66
2023-05-09T14:17:50.682Z,96274.59
2023-05-09T14:20:17.691Z,96275.56
2023-05-09T14:22:44.943Z,96281.47
2023-05-09T14:25:12.157Z,96276.06
2023-05-09T14:27:39.031Z,96273.09
2023-05-09T14:30:06.662Z,96273.44
2023-05-09T14:32:33.482Z,96264.75
2023-05-09T14:35:00.707Z,96257.44
2023-05-09T14:37:29.261Z,96254.00
2023-05-09T14:39:56.108Z,96247.84
2023-05-09T14:42:22.941Z,96246.09
2023-05-09T14:44:49.891Z,96235.84
2023-05-09T14:47:16.824Z,96240.34
2023-05-09T14:49:44.162Z,96236.69
2023-05-09T14:52:10.968Z,96237.47
2023-05-09T14:54:39.681Z,96232.75
2023-05-09T14:57:07.529Z,96230.03
2023-05-09T14:59:37.468Z,96229.97
2023-05-09T15:02:04.409Z,96229.13
2023-05-09T15:04:31.650Z,96223.06
2023-05-09T15:06:58.868Z,96219.50
2023-05-09T15:09:26.430Z,96210.75
2023-05-09T15:11:53.924Z,96217.88
2023-05-09T15:14:20.739Z,96210.75
2023-05-09T15:16:48.511Z,96209.34
2023-05-09T15:19:15.404Z,96212.56
2023-05-09T15:21:42.173Z,96201.88
2023-05-09T15:24:09.012Z,96205.44
2023-05-09T15:26:35.791Z,96191.22
2023-05-09T15:29:02.613Z,96196.69
2023-05-09T15:31:33.605Z,96191.72
2023-05-09T15:34:01.309Z,96187.88
2023-05-09T15:36:32.040Z,96179.94
2023-05-09T15:38:58.892Z,96184.31
2023-05-09T15:41:31.523Z,96180.19
2023-05-09T15:43:58.462Z,96171.97
2023-05-09T15:46:25.337Z,96171.69
2023-05-09T15:48:54.687Z,96171.34
2023-05-09T15:51:23.060Z,96176.22
2023-05-09T15:53:49.970Z,96168.53
2023-05-09T15:56:16.933Z,96165.22
2023-05-09T15:58:43.798Z,96162.75
2023-05-09T16:01:12.861Z,96154.78
2023-05-09T16:03:39.923Z,96158.06
2023-05-09T16:06:07.466Z,96153.63
2023-05-09T16:08:34.289Z,96156.91
2023-05-09T16:11:01.835Z,96150.00
2023-05-09T16:13:29.815Z,96140.38
2023-05-09T16:15:56.957Z,96146.94
2023-05-09T16:18:24.037Z,96144.97
2023-05-09T16:20:50.926Z,96136.16
2023-05-09T16:23:17.676Z,96138.06
2023-05-09T16:25:44.903Z,96134.78
2023-05-09T16:28:11.779Z,96135.88
2023-05-09T16:30:38.556Z,96139.44
2023-05-09T16:33:05.367Z,96136.91
2023-05-09T16:35:32.218Z,96135.53
2023-05-09T16:37:59.096Z,96136.84
2023-05-09T16:40:25.933Z,96142.25
2023-05-09T16:42:53.751Z,96135.31
2023-05-09T16:45:20.614Z,96139.88
2023-05-09T16:47:47.457Z,96142.78
2023-05-09T16:50:14.610Z,96144.03
2023-05-09T16:52:41.624Z,96147.44
2023-05-09T16:55:08.683Z,96140.72
2023-05-09T16:57:35.518Z,96143.03
2023-05-09T17:00:02.492Z,96143.44
2023-05-09T17:02:29.407Z,96152.25
2023-05-09T17:04:56.579Z,96151.84
2023-05-09T17:07:23.387Z,96154.13
2023-05-09T17:09:50.209Z,96156.91
2023-05-09T17:12:18.188Z,96152.84
2023-05-09T17:14:47.147Z,96143.97
2023-05-09T17:17:14.714Z,96143.09
2023-05-09T17:19:41.530Z,96158.56
2023-05-09T17:22:08.659Z,96163.09
2023-05-09T17:24:35.574Z,96166.25
2023-05-09T17:27:02.628Z,96162.69
2023-05-09T17:29:30.606Z,96171.47
2023-05-09T17:32:00.753Z,96166.84
2023-05-09T17:34:28.667Z,96173.72
2023-05-09T17:36:56.126Z,96171.56
2023-05-09T17:39:23.761Z,96171.31
2023-05-09T17:41:50.585Z,96161.53
2023-05-09T17:44:17.389Z,96161.66
2023-05-09T17:46:44.335Z,96157.13
2023-05-09T17:49:13.791Z,96158.09
2023-05-09T17:51:40.859Z,96163.41
2023-05-09T17:54:07.719Z,96156.16
2023-05-09T17:56:34.616Z,96153.31
2023-05-09T17:59:01.538Z,96147.72
2023-05-09T18:01:29.016Z,96146.53
2023-05-09T18:03:56.860Z,96137.75
2023-05-09T18:06:23.948Z,96142.81
2023-05-09T18:08:50.866Z,96145.78
2023-05-09T18:11:17.742Z,96144.34
2023-05-09T18:13:44.540Z,96139.41
2023-05-09T18:16:11.388Z,96141.75
2023-05-09T18:18:38.232Z,96142.44
2023-05-09T18:21:05.374Z,96146.44
2023-05-09T18:23:32.267Z,96147.94
2023-05-09T18:25:59.180Z,96145.69
2023-05-09T18:28:27.326Z,96148.81
2023-05-09T18:30:55.646Z,96148.22
2023-05-09T18:33:24.150Z,96153.91
2023-05-09T18:35:52.974Z,96153.28
2023-05-09T18:38:19.809Z,96145.56
2023-05-09T18:40:47.360Z,96150.44
2023-05-09T18:43:15.284Z,96153.59
2023-05-09T18:45:44.831Z,96149.47
2023-05-09T18:48:11.645Z,96148.84
2023-05-09T18:50:38.987Z,96152.63
2023-05-09T18:53:05.852Z,96156.41
2023-05-09T18:55:33.378Z,96153.91
2023-05-09T18:58:00.174Z,96157.69
2023-05-09T19:00:27.408Z,96149.28
2023-05-09T19:02:57.981Z,96154.72
2023-05-09T19:05:28.598Z,96150.13
2023-05-09T19:07:57.515Z,96151.19
2023-05-09T19:10:25.244Z,96150.97
2023-05-09T19:12:52.688Z,96151.81
2023-05-09T19:15:21.011Z,96151.81
2023-05-09T19:17:49.248Z,96158.28
2023-05-09T19:20:18.750Z,96150.34
2023-05-09T19:22:53.680Z,96158.75
2023-05-09T19:25:21.369Z,96155.22
2023-05-09T19:27:48.473Z,96169.81
2023-05-09T19:30:17.010Z,96168.16
2023-05-09T19:32:46.022Z,96166.53
2023-05-09T19:35:15.759Z,96171.34
2023-05-09T19:37:44.806Z,96169.69
2023-05-09T19:40:14.887Z,96174.53
2023-05-09T19:42:43.432Z,96174.72
2023-05-09T19:45:17.732Z,96174.16
2023-05-09T19:47:46.675Z,96175.41
2023-05-09T19:50:15.979Z,96178.81
2023-05-09T19:52:45.772Z,96175.50
2023-05-09T19:55:16.470Z,96173.22
2023-05-09T19:57:51.839Z,96172.03
2023-05-09T20:00:21.212Z,96172.69
2023-05-09T20:02:49.592Z,96177.50
2023-05-09T20:05:18.237Z,96176.28
2023-05-09T20:07:45.498Z,96174.00
2023-05-09T20:10:14.217Z,96176.13
2023-05-09T20:12:41.974Z,96173.88
2023-05-09T20:15:09.787Z,96167.84
2023-05-09T20:17:37.196Z,96175.38
2023-05-09T20:20:05.381Z,96178.56
2023-05-09T20:22:33.605Z,96174.38
2023-05-09T20:25:00.477Z,96176.47
2023-05-09T20:27:27.345Z,96171.47
2023-05-09T20:29:56.375Z,96179.81
2023-05-09T20:32:24.328Z,96177.59
2023-05-09T20:34:51.156Z,96176.97
2023-05-09T20:37:18.028Z,96175.31
2023-05-09T20:39:45.585Z,96169.25
2023-05-09T20:42:12.464Z,96170.31
2023-05-09T20:44:41.954Z,96165.94
2023-05-09T20:47:09.818Z,96165.13
2023-05-09T20:49:36.761Z,96162.59
2023-05-09T20:52:03.736Z,96167.19
2023-05-09T20:54:30.953Z,96156.59
2023-05-09T20:56:57.796Z,96157.63
2023-05-09T20:59:24.671Z,96161.19
2023-05-09T21:01:52.167Z,96164.09
2023-05-09T21:04:19.101Z,96159.50
2023-05-09T21:06:45.895Z,96155.38
2023-05-09T21:09:12.767Z,96155.38
2023-05-09T21:11:39.720Z,96163.50
2023-05-09T21:14:08.057Z,96167.28
2023-05-09T21:16:35.264Z,96168.31
2023-05-09T21:19:04.809Z,96159.34
2023-05-09T21:21:35.730Z,96164.16
2023-05-09T21:24:04.235Z,96162.72
2023-05-09T21:26:31.181Z,96162.94
2023-05-09T21:28:57.998Z,96160.66
2023-05-09T21:31:24.919Z,96161.72
2023-05-09T21:33:51.998Z,96168.22
2023-05-09T21:36:18.816Z,96161.34
2023-05-09T21:38:45.651Z,96159.88
2023-05-09T21:41:12.579Z,96157.63
2023-05-09T21:43:39.485Z,96151.59
2023-05-09T21:46:06.435Z,96161.84
2023-05-09T21:48:33.365Z,96157.66
2023-05-09T21:51:03.970Z,96164.00
2023-05-09T21:53:30.805Z,96160.22
2023-05-09T21:55:57.582Z,96155.84
2023-05-09T21:58:24.419Z,96155.22
2023-05-09T22:00:51.280Z,96163.59
2023-05-09T22:03:18.174Z,96151.91
2023-05-09T22:05:45.150Z,96154.63
2023-05-09T22:08:12.074Z,96153.78
2023-05-09T22:10:38.977Z,96159.44
2023-05-09T22:13:05.857Z,96151.53
2023-05-09T22:15:32.730Z,96156.13
2023-05-09T22:18:00.128Z,96154.66
2023-05-09T22:20:27.100Z,96158.44
2023-05-09T22:22:53.906Z,96160.31
2023-05-09T22:25:20.881Z,96155.91
2023-05-09T22:27:47.760Z,96153.22
2023-05-09T22:30:14.842Z,96155.72
2023-05-09T22:32:41.994Z,96158.44
2023-05-09T22:35:09.245Z,96162.16
2023-05-09T22:37:36.299Z,96159.25
2023-05-09T22:40:03.519Z,96166.34
2023-05-09T22:42:30.299Z,96167.41
2023-05-09T22:44:57.291Z,96166.56
2023-05-09T22:47:24.157Z,96177.63
2023-05-09T22:49:51.003Z,96162.41
2023-05-09T22:52:17.842Z,96169.72
2023-05-09T22:54:44.942Z,96172.41
2023-05-09T22:57:12.171Z,96179.94
2023-05-09T22:59:39.005Z,96174.97
2023-05-09T23:02:05.891Z,96184.78
2023-05-09T23:04:32.768Z,96186.25
2023-05-09T23:06:59.561Z,96182.50
2023-05-09T23:09:26.789Z,96188.81
2023-05-09T23:11:53.638Z,96181.97
2023-05-09T23:14:21.274Z,96179.50
2023-05-09T23:16:49.073Z,96187.03
2023-05-09T23:19:15.863Z,96175.84
2023-05-09T23:21:42.660Z,96189.81
2023-05-09T23:24:09.535Z,96189.66
2023-05-09T23:26:36.325Z,96183.25
2023-05-09T23:29:03.111Z,96188.44
2023-05-09T23:31:29.972Z,96185.31
2023-05-09T23:33:56.823Z,96194.50
2023-05-09T23:36:23.616Z,96196.38
2023-05-09T23:38:50.447Z,96191.78
2023-05-09T23:41:17.258Z,96196.16
2023-05-09T23:43:44.183Z,96198.44
2023-05-09T23:46:11.316Z,96196.38
2023-05-09T23:48:38.261Z,96195.13
2023-05-09T23:51:05.565Z,96196.56
2023-05-09T23:53:34.973Z,96194.91
2023-05-09T23:56:02.767Z,96193.88
2023-05-09T23:58:29.529Z,96193.66
